createdAt,value
2019-03-09T00:01:46.912Z,13.33
2019-03-09T00:04:36.891Z,13.34
2019-03-09T00:07:27.251Z,13.38
2019-03-09T00:10:17.220Z,13.42
2019-03-09T00:13:07.585Z,13.48
2019-03-09T00:15:59.020Z,13.49
2019-03-09T00:18:49.409Z,13.42
2019-03-09T00:21:39.666Z,13.47
2019-03-09T00:24:39.367Z,13.42
2019-03-09T00:27:51.483Z,13.35
2019-03-09T00:31:03.804Z,13.25
2019-03-09T00:33:54.025Z,13.32
2019-03-09T00:36:44.043Z,13.39
2019-03-09T00:39:34.621Z,13.34
2019-03-09T00:42:24.879Z,13.38
2019-03-09T00:45:15.167Z,13.42
2019-03-09T00:48:05.211Z,13.47
2019-03-09T00:50:55.503Z,13.46
2019-03-09T00:53:47.505Z,13.42
2019-03-09T00:56:37.870Z,13.43
2019-03-09T00:59:28.395Z,13.45
2019-03-09T01:02:18.644Z,13.41
2019-03-09T01:05:09.562Z,13.45
2019-03-09T01:07:59.805Z,13.44
2019-03-09T01:10:50.149Z,13.45
2019-03-09T01:13:40.189Z,13.47
2019-03-09T01:16:30.589Z,13.50
2019-03-09T01:19:20.897Z,13.45
2019-03-09T01:22:11.143Z,13.39
2019-03-09T01:25:01.393Z,13.36
2019-03-09T01:27:51.870Z,13.34
2019-03-09T01:30:41.931Z,13.32
2019-03-09T01:33:32.348Z,13.30
2019-03-09T01:36:22.331Z,13.21
2019-03-09T01:39:12.371Z,13.14
2019-03-09T01:42:02.587Z,13.09
2019-03-09T01:44:52.816Z,13.10
2019-03-09T01:47:42.828Z,13.12
2019-03-09T01:50:33.109Z,13.16
2019-03-09T01:53:23.348Z,13.10
2019-03-09T01:56:13.941Z,13.08
2019-03-09T01:59:05.072Z,13.09
2019-03-09T02:01:55.390Z,13.12
2019-03-09T02:04:45.366Z,13.12
2019-03-09T02:07:35.746Z,13.18
2019-03-09T02:10:26.044Z,13.21
2019-03-09T02:13:16.176Z,13.21
2019-03-09T02:16:06.424Z,13.18
2019-03-09T02:18:56.699Z,13.20
2019-03-09T02:21:46.966Z,13.24
2019-03-09T02:24:37.572Z,13.11
2019-03-09T02:27:27.899Z,13.05
2019-03-09T02:30:18.322Z,13.04
2019-03-09T02:33:08.536Z,12.99
2019-03-09T02:35:58.622Z,12.88
2019-03-09T02:39:11.560Z,12.88
2019-03-09T02:42:02.140Z,12.90
2019-03-09T02:44:52.374Z,12.74
2019-03-09T02:47:42.724Z,12.81
2019-03-09T02:50:32.976Z,12.66
2019-03-09T02:53:23.055Z,12.66
2019-03-09T02:56:13.244Z,12.66
2019-03-09T02:59:03.320Z,12.65
2019-03-09T03:02:05.475Z,12.66
2019-03-09T03:04:55.720Z,12.63
2019-03-09T03:07:47.021Z,12.67
2019-03-09T03:10:37.549Z,12.63
2019-03-09T03:13:27.568Z,12.67
2019-03-09T03:16:17.943Z,12.68
2019-03-09T03:19:08.199Z,12.69
2019-03-09T03:21:58.455Z,12.68
2019-03-09T03:24:48.591Z,12.63
2019-03-09T03:27:38.821Z,12.68
2019-03-09T03:30:29.243Z,12.63
2019-03-09T03:33:19.196Z,12.58
2019-03-09T03:36:09.397Z,12.62
2019-03-09T03:38:59.577Z,12.60
2019-03-09T03:41:49.598Z,12.60
2019-03-09T03:44:46.245Z,12.60
2019-03-09T03:47:36.446Z,12.54
2019-03-09T03:50:26.528Z,12.56
2019-03-09T03:53:16.647Z,12.52
2019-03-09T03:56:06.917Z,12.54
2019-03-09T03:58:57.264Z,12.39
2019-03-09T04:01:47.519Z,12.51
2019-03-09T04:04:37.823Z,12.47
2019-03-09T04:07:28.105Z,12.52
2019-03-09T04:10:18.413Z,12.62
2019-03-09T04:13:08.518Z,12.64
2019-03-09T04:15:58.786Z,12.67
2019-03-09T04:18:49.010Z,12.64
2019-03-09T04:21:39.243Z,12.60
2019-03-09T04:24:30.415Z,12.61
2019-03-09T04:27:20.637Z,12.46
2019-03-09T04:30:11.042Z,12.52
2019-03-09T04:33:01.071Z,12.51
2019-03-09T04:35:51.627Z,12.55
2019-03-09T04:38:41.975Z,12.59
2019-03-09T04:41:32.385Z,12.57
2019-03-09T04:44:22.500Z,12.49
2019-03-09T04:47:12.797Z,12.54
2019-03-09T04:50:03.078Z,12.39
2019-03-09T04:52:53.438Z,12.41
2019-03-09T04:55:43.431Z,12.39
2019-03-09T04:58:33.778Z,12.32
2019-03-09T05:01:23.941Z,12.44
2019-03-09T05:04:42.715Z,12.50
2019-03-09T05:07:35.065Z,12.55
2019-03-09T05:10:48.732Z,12.54
2019-03-09T05:13:42.500Z,12.53
2019-03-09T05:16:32.648Z,12.57
2019-03-09T05:19:22.664Z,12.59
2019-03-09T05:22:13.227Z,12.63
2019-03-09T05:25:03.572Z,12.57
2019-03-09T05:27:53.820Z,12.61
2019-03-09T05:30:45.261Z,12.73
2019-03-09T05:33:35.484Z,12.81
2019-03-09T05:36:25.773Z,12.90
2019-03-09T05:39:16.046Z,12.96
2019-03-09T05:42:06.066Z,13.04
2019-03-09T05:44:56.348Z,13.07
2019-03-09T05:47:46.413Z,13.05
2019-03-09T05:50:36.950Z,13.07
2019-03-09T05:53:27.400Z,13.10
2019-03-09T05:56:17.540Z,13.14
2019-03-09T05:59:07.792Z,13.19
2019-03-09T06:01:58.113Z,13.21
2019-03-09T06:04:48.493Z,13.20
2019-03-09T06:07:38.843Z,13.21
2019-03-09T06:10:28.956Z,13.23
2019-03-09T06:13:19.268Z,13.10
2019-03-09T06:16:11.193Z,13.23
2019-03-09T06:19:01.616Z,13.31
2019-03-09T06:21:51.955Z,13.32
2019-03-09T06:24:42.183Z,13.41
2019-03-09T06:27:32.687Z,13.46
2019-03-09T06:30:24.090Z,13.43
2019-03-09T06:33:28.391Z,13.40
2019-03-09T06:37:02.176Z,13.41
2019-03-09T06:39:54.125Z,13.30
2019-03-09T06:42:50.001Z,13.22
2019-03-09T06:45:40.361Z,13.20
2019-03-09T06:48:30.631Z,13.21
2019-03-09T06:51:23.272Z,13.46
2019-03-09T06:54:13.467Z,13.65
2019-03-09T06:57:13.473Z,13.65
2019-03-09T06:59:56.155Z,13.76
2019-03-09T07:02:46.370Z,13.55
2019-03-09T07:05:36.938Z,13.86
2019-03-09T07:08:27.365Z,13.97
2019-03-09T07:11:18.937Z,14.12
2019-03-09T07:15:20.994Z,14.01
2019-03-09T07:18:16.507Z,14.14
2019-03-09T07:21:06.619Z,14.24
2019-03-09T07:23:56.984Z,14.19
2019-03-09T07:26:49.914Z,14.04
2019-03-09T07:29:43.062Z,14.31
2019-03-09T07:32:33.076Z,14.41
2019-03-09T07:35:23.369Z,14.74
2019-03-09T07:38:13.689Z,15.09
2019-03-09T07:41:03.998Z,14.98
2019-03-09T07:43:54.264Z,15.15
2019-03-09T07:46:45.123Z,15.08
2019-03-09T07:49:35.573Z,15.28
2019-03-09T07:52:34.663Z,15.43
2019-03-09T07:55:25.069Z,15.49
2019-03-09T07:58:15.398Z,15.27
2019-03-09T08:01:05.827Z,14.96
2019-03-09T08:03:56.387Z,14.94
2019-03-09T08:06:46.832Z,14.63
2019-03-09T08:09:37.216Z,14.48
2019-03-09T08:12:27.685Z,14.64
2019-03-09T08:15:18.653Z,14.88
2019-03-09T08:18:08.575Z,15.17
2019-03-09T08:20:59.717Z,15.12
2019-03-09T08:23:49.933Z,15.27
2019-03-09T08:26:42.005Z,15.18
2019-03-09T08:29:32.015Z,14.84
2019-03-09T08:32:22.647Z,14.78
2019-03-09T08:35:12.614Z,14.67
2019-03-09T08:38:02.963Z,14.96
2019-03-09T08:40:53.424Z,14.88
2019-03-09T08:43:44.169Z,15.10
2019-03-09T08:46:34.442Z,15.45
2019-03-09T08:49:24.773Z,15.65
2019-03-09T08:52:14.865Z,16.20
2019-03-09T08:55:05.733Z,16.67
2019-03-09T08:57:55.713Z,16.45
2019-03-09T09:00:46.103Z,16.21
2019-03-09T09:03:36.339Z,16.26
2019-03-09T09:06:26.680Z,15.95
2019-03-09T09:09:17.099Z,15.95
2019-03-09T09:12:07.579Z,16.25
2019-03-09T09:14:58.061Z,16.16
2019-03-09T09:17:48.112Z,16.70
2019-03-09T09:20:38.451Z,16.85
2019-03-09T09:23:28.805Z,16.74
2019-03-09T09:26:19.105Z,17.18
2019-03-09T09:29:09.414Z,16.38
2019-03-09T09:31:59.303Z,16.29
2019-03-09T09:34:49.555Z,16.34
2019-03-09T09:37:39.773Z,16.35
2019-03-09T09:40:29.929Z,16.60
2019-03-09T09:43:19.959Z,16.39
2019-03-09T09:46:10.295Z,16.37
2019-03-09T09:49:00.573Z,16.37
2019-03-09T09:51:51.231Z,16.02
2019-03-09T09:54:41.509Z,16.16
2019-03-09T09:57:31.918Z,16.14
2019-03-09T10:00:24.237Z,16.28
2019-03-09T10:03:14.519Z,15.90
2019-03-09T10:06:05.998Z,16.40
2019-03-09T10:08:56.250Z,15.52
2019-03-09T10:11:46.524Z,15.75
2019-03-09T10:14:36.830Z,15.86
2019-03-09T10:17:27.095Z,15.55
2019-03-09T10:20:17.488Z,15.79
2019-03-09T10:23:07.512Z,15.61
2019-03-09T10:25:57.877Z,15.62
2019-03-09T10:28:48.070Z,15.56
2019-03-09T10:31:38.285Z,15.38
2019-03-09T10:34:28.564Z,15.61
2019-03-09T10:37:19.127Z,15.53
2019-03-09T10:40:09.546Z,15.49
2019-03-09T10:42:59.964Z,15.55
2019-03-09T10:45:50.213Z,15.28
2019-03-09T10:48:40.523Z,15.58
2019-03-09T10:51:30.782Z,15.63
2019-03-09T10:54:35.515Z,15.39
2019-03-09T10:57:18.449Z,15.31
2019-03-09T11:00:18.017Z,15.46
2019-03-09T11:03:08.062Z,15.22
2019-03-09T11:06:00.652Z,15.21
2019-03-09T11:08:50.985Z,15.12
2019-03-09T11:11:41.424Z,15.25
2019-03-09T11:14:31.842Z,14.92
2019-03-09T11:17:22.280Z,15.03
2019-03-09T11:20:13.404Z,14.56
2019-03-09T11:23:03.598Z,14.73
2019-03-09T11:25:57.904Z,14.75
2019-03-09T11:29:03.374Z,14.67
2019-03-09T11:32:04.918Z,14.83
2019-03-09T11:35:04.349Z,14.57
2019-03-09T11:38:04.611Z,14.76
2019-03-09T11:41:07.425Z,14.62
2019-03-09T11:44:11.893Z,14.57
2019-03-09T11:47:12.151Z,14.39
2019-03-09T11:50:05.102Z,14.59
2019-03-09T11:52:55.687Z,14.28
2019-03-09T11:55:46.079Z,14.42
2019-03-09T11:58:38.253Z,14.28
2019-03-09T12:01:28.582Z,14.28
2019-03-09T12:04:18.963Z,14.28
2019-03-09T12:07:09.137Z,14.28
2019-03-09T12:09:59.384Z,14.34
2019-03-09T12:12:49.639Z,14.27
2019-03-09T12:15:39.937Z,14.45
2019-03-09T12:18:30.151Z,14.36
2019-03-09T12:21:20.246Z,14.49
2019-03-09T12:24:16.748Z,14.57
2019-03-09T12:27:02.478Z,14.57
2019-03-09T12:29:52.715Z,14.43
2019-03-09T12:32:43.001Z,14.32
2019-03-09T12:35:33.227Z,14.46
2019-03-09T12:38:23.868Z,14.32
2019-03-09T12:41:14.375Z,14.40
2019-03-09T12:44:04.818Z,14.12
2019-03-09T12:46:55.052Z,14.12
2019-03-09T12:49:45.353Z,14.30
2019-03-09T12:52:35.564Z,14.38
2019-03-09T12:55:26.880Z,14.49
2019-03-09T12:58:17.259Z,14.69
2019-03-09T13:01:07.708Z,14.80
2019-03-09T13:03:59.038Z,14.98
2019-03-09T13:06:49.527Z,15.19
2019-03-09T13:09:40.489Z,15.47
2019-03-09T13:12:30.922Z,15.59
2019-03-09T13:15:21.425Z,15.52
2019-03-09T13:18:11.827Z,15.68
2019-03-09T13:21:02.050Z,15.36
2019-03-09T13:23:52.356Z,15.19
2019-03-09T13:26:42.578Z,15.43
2019-03-09T13:29:32.877Z,15.53
2019-03-09T13:32:23.150Z,15.63
2019-03-09T13:35:15.104Z,15.69
2019-03-09T13:38:05.349Z,15.76
2019-03-09T13:40:55.685Z,15.69
2019-03-09T13:43:45.910Z,15.64
2019-03-09T13:46:36.130Z,15.69
2019-03-09T13:49:28.985Z,15.82
2019-03-09T13:52:19.486Z,15.76
2019-03-09T13:55:09.570Z,15.53
2019-03-09T13:57:59.722Z,15.75
2019-03-09T14:00:49.978Z,15.88
2019-03-09T14:03:40.306Z,15.82
2019-03-09T14:06:30.617Z,15.57
2019-03-09T14:09:21.175Z,15.60
2019-03-09T14:12:11.566Z,15.77
2019-03-09T14:15:02.262Z,15.69
2019-03-09T14:17:52.393Z,15.52
2019-03-09T14:20:42.900Z,15.43
2019-03-09T14:23:33.251Z,15.33
2019-03-09T14:26:23.383Z,15.40
2019-03-09T14:29:13.721Z,15.40
2019-03-09T14:32:03.794Z,15.28
2019-03-09T14:34:54.111Z,15.24
2019-03-09T14:37:44.578Z,15.41
2019-03-09T14:40:34.900Z,15.57
2019-03-09T14:43:25.285Z,15.50
2019-03-09T14:46:15.685Z,15.63
2019-03-09T14:49:06.214Z,15.59
2019-03-09T14:51:56.447Z,15.74
2019-03-09T14:54:46.491Z,15.75
2019-03-09T14:57:36.472Z,15.83
2019-03-09T15:00:26.762Z,15.54
2019-03-09T15:03:18.069Z,15.33
2019-03-09T15:06:08.452Z,15.37
2019-03-09T15:08:58.799Z,15.21
2019-03-09T15:11:48.891Z,15.23
2019-03-09T15:14:39.269Z,15.27
2019-03-09T15:17:29.585Z,15.28
2019-03-09T15:20:19.954Z,15.43
2019-03-09T15:23:10.261Z,15.46
2019-03-09T15:26:00.356Z,15.49
2019-03-09T15:28:50.671Z,15.30
2019-03-09T15:31:40.865Z,15.39
2019-03-09T15:34:31.162Z,15.50
2019-03-09T15:37:21.380Z,15.58
2019-03-09T15:40:11.985Z,15.64
2019-03-09T15:43:02.151Z,15.56
2019-03-09T15:45:52.664Z,15.66
2019-03-09T15:48:43.098Z,15.66
2019-03-09T15:51:33.412Z,15.73
2019-03-09T15:54:23.575Z,15.75
2019-03-09T15:57:13.645Z,15.75
2019-03-09T16:00:04.026Z,15.75
2019-03-09T16:02:54.319Z,15.70
2019-03-09T16:05:44.550Z,15.67
2019-03-09T16:08:34.817Z,15.55
2019-03-09T16:11:25.083Z,15.46
2019-03-09T16:14:15.596Z,15.41
2019-03-09T16:17:07.855Z,15.16
2019-03-09T16:19:58.007Z,14.97
2019-03-09T16:22:48.063Z,14.90
2019-03-09T16:25:38.183Z,14.82
2019-03-09T16:28:28.473Z,14.66
2019-03-09T16:31:18.600Z,14.56
2019-03-09T16:34:09.817Z,14.36
2019-03-09T16:37:00.121Z,14.41
2019-03-09T16:39:50.154Z,14.30
2019-03-09T16:42:40.512Z,14.32
2019-03-09T16:45:30.742Z,14.11
2019-03-09T16:48:21.117Z,14.07
2019-03-09T16:51:11.349Z,13.98
2019-03-09T16:54:01.643Z,13.96
2019-03-09T16:56:51.959Z,13.89
2019-03-09T16:59:44.268Z,13.88
2019-03-09T17:02:34.014Z,13.90
2019-03-09T17:05:24.113Z,13.92
2019-03-09T17:08:14.134Z,13.82
2019-03-09T17:11:04.564Z,13.79
2019-03-09T17:13:54.884Z,13.83
2019-03-09T17:16:45.407Z,13.85
2019-03-09T17:19:35.734Z,13.78
2019-03-09T17:22:33.006Z,13.79
2019-03-09T17:25:17.750Z,13.82
2019-03-09T17:28:07.866Z,13.79
2019-03-09T17:30:58.158Z,13.84
2019-03-09T17:33:48.604Z,13.89
2019-03-09T17:36:38.638Z,13.94
2019-03-09T17:39:29.166Z,13.97
2019-03-09T17:42:19.441Z,13.95
2019-03-09T17:45:15.810Z,14.02
2019-03-09T17:48:05.859Z,14.02
2019-03-09T17:50:56.533Z,14.11
2019-03-09T17:53:46.791Z,13.94
2019-03-09T17:56:37.104Z,13.42
2019-03-09T17:59:27.542Z,13.54
2019-03-09T18:02:17.918Z,13.64
2019-03-09T18:05:08.835Z,13.64
2019-03-09T18:07:59.414Z,13.64
2019-03-09T18:10:53.112Z,13.63
2019-03-09T18:13:43.177Z,13.72
2019-03-09T18:16:33.437Z,13.84
2019-03-09T18:19:23.784Z,13.79
2019-03-09T18:22:14.008Z,13.74
2019-03-09T18:25:04.334Z,13.62
2019-03-09T18:27:54.694Z,13.69
2019-03-09T18:30:45.031Z,13.61
2019-03-09T18:33:35.214Z,13.70
2019-03-09T18:36:25.430Z,13.70
2019-03-09T18:39:16.904Z,13.71
2019-03-09T18:42:07.683Z,13.82
2019-03-09T18:44:57.899Z,13.81
2019-03-09T18:47:48.225Z,13.77
2019-03-09T18:50:38.487Z,13.72
2019-03-09T18:53:28.569Z,13.80
2019-03-09T18:56:19.006Z,13.84
2019-03-09T18:59:09.307Z,13.81
2019-03-09T19:01:59.435Z,13.83
2019-03-09T19:04:49.967Z,13.83
2019-03-09T19:07:40.386Z,13.81
2019-03-09T19:10:30.676Z,13.89
2019-03-09T19:13:20.868Z,13.90
2019-03-09T19:16:11.291Z,13.80
2019-03-09T19:19:01.565Z,13.52
2019-03-09T19:21:53.027Z,13.51
2019-03-09T19:24:43.298Z,13.49
2019-03-09T19:27:33.464Z,13.47
2019-03-09T19:30:23.708Z,13.47
2019-03-09T19:33:13.840Z,13.48
2019-03-09T19:36:04.394Z,13.38
2019-03-09T19:38:54.678Z,13.25
2019-03-09T19:41:44.966Z,13.22
2019-03-09T19:44:35.203Z,13.17
2019-03-09T19:47:25.496Z,13.03
2019-03-09T19:50:17.913Z,13.05
2019-03-09T19:53:07.770Z,13.03
2019-03-09T19:55:57.945Z,12.98
2019-03-09T19:58:48.187Z,13.03
2019-03-09T20:01:38.535Z,12.98
2019-03-09T20:04:28.873Z,12.95
2019-03-09T20:07:19.389Z,12.74
2019-03-09T20:10:10.701Z,12.76
2019-03-09T20:13:03.518Z,12.83
2019-03-09T20:15:53.986Z,12.87
2019-03-09T20:18:44.340Z,12.79
2019-03-09T20:21:35.700Z,12.86
2019-03-09T20:24:26.230Z,12.90
2019-03-09T20:27:16.510Z,12.95
2019-03-09T20:30:07.632Z,12.90
2019-03-09T20:32:57.896Z,12.95
2019-03-09T20:35:48.232Z,12.93
2019-03-09T20:38:38.664Z,12.88
2019-03-09T20:41:28.947Z,12.82
2019-03-09T20:44:19.339Z,12.82
2019-03-09T20:47:09.996Z,12.85
2019-03-09T20:50:00.508Z,12.93
2019-03-09T20:52:51.042Z,12.92
2019-03-09T20:55:41.191Z,12.89
2019-03-09T20:58:31.367Z,12.89
2019-03-09T21:01:22.801Z,12.88
2019-03-09T21:04:13.007Z,12.89
2019-03-09T21:07:03.456Z,12.87
2019-03-09T21:09:53.785Z,12.93
2019-03-09T21:12:58.119Z,12.92
2019-03-09T21:15:48.587Z,12.89
2019-03-09T21:18:38.919Z,12.85
2019-03-09T21:21:28.993Z,12.92
2019-03-09T21:24:23.269Z,12.94
2019-03-09T21:27:17.412Z,13.01
2019-03-09T21:30:07.958Z,12.91
2019-03-09T21:32:58.390Z,12.87
2019-03-09T21:35:48.378Z,12.87
2019-03-09T21:38:38.752Z,12.89
2019-03-09T21:41:29.577Z,12.84
2019-03-09T21:44:19.641Z,12.90
2019-03-09T21:47:09.933Z,12.97
2019-03-09T21:50:00.539Z,13.01
2019-03-09T21:52:50.891Z,12.94
2019-03-09T21:55:41.215Z,13.03
2019-03-09T21:58:31.695Z,13.04
2019-03-09T22:01:22.062Z,12.96
2019-03-09T22:04:16.473Z,12.98
2019-03-09T22:07:06.931Z,12.96
2019-03-09T22:09:57.002Z,12.96
2019-03-09T22:12:47.400Z,12.92
2019-03-09T22:15:37.709Z,12.98
2019-03-09T22:18:28.328Z,12.85
2019-03-09T22:21:18.545Z,12.88
2019-03-09T22:24:08.556Z,12.84
2019-03-09T22:26:58.850Z,12.83
2019-03-09T22:29:49.494Z,12.80
2019-03-09T22:32:39.791Z,12.08
2019-03-09T22:35:30.115Z,11.97
2019-03-09T22:38:20.711Z,12.09
2019-03-09T22:41:11.147Z,12.15
2019-03-09T22:44:01.222Z,12.03
2019-03-09T22:46:51.575Z,12.12
2019-03-09T22:49:41.894Z,12.20
2019-03-09T22:52:32.019Z,12.20
2019-03-09T22:55:22.336Z,12.25
2019-03-09T22:58:12.748Z,12.21
2019-03-09T23:01:03.152Z,12.25
2019-03-09T23:03:54.623Z,12.28
2019-03-09T23:06:44.847Z,12.16
2019-03-09T23:09:35.408Z,12.20
2019-03-09T23:12:25.536Z,12.05
2019-03-09T23:15:19.076Z,12.06
2019-03-09T23:18:09.146Z,12.05
2019-03-09T23:20:59.522Z,12.02
2019-03-09T23:23:49.463Z,12.06
2019-03-09T23:26:39.480Z,12.08
2019-03-09T23:29:29.872Z,12.03
2019-03-09T23:32:21.237Z,12.12
2019-03-09T23:35:11.261Z,12.17
2019-03-09T23:38:01.538Z,12.22
2019-03-09T23:40:51.962Z,12.12
2019-03-09T23:43:42.609Z,12.12
2019-03-09T23:46:32.912Z,12.11
2019-03-09T23:49:25.479Z,12.10
2019-03-09T23:52:15.546Z,12.16
2019-03-09T23:55:08.638Z,12.15
2019-03-09T23:57:58.928Z,12.13
